createdAt,value
2023-06-25T00:00:45.539Z,7.07
2023-06-25T00:03:13.317Z,6.13
2023-06-25T00:05:39.827Z,7.07
2023-06-25T00:08:06.288Z,7.47
2023-06-25T00:10:32.661Z,6.57
2023-06-25T00:12:59.130Z,7.03
2023-06-25T00:15:25.572Z,6.63
2023-06-25T00:17:51.968Z,6.60
2023-06-25T00:20:18.691Z,7.10
2023-06-25T00:23:04.843Z,5.47
2023-06-25T00:25:32.274Z,6.30
2023-06-25T00:28:00.094Z,6.93
2023-06-25T00:30:26.488Z,7.17
2023-06-25T00:32:55.648Z,6.03
2023-06-25T00:35:25.836Z,6.90
2023-06-25T00:37:57.972Z,7.30
2023-06-25T00:40:24.900Z,6.70
2023-06-25T00:42:57.775Z,5.90
2023-06-25T00:45:27.387Z,6.80
2023-06-25T00:47:55.161Z,6.37
2023-06-25T00:50:22.860Z,6.17
2023-06-25T00:52:50.230Z,7.10
2023-06-25T00:55:17.066Z,6.83
2023-06-25T00:57:43.853Z,6.00
2023-06-25T01:00:15.722Z,6.67
2023-06-25T01:02:47.393Z,7.03
2023-06-25T01:05:20.801Z,6.70
2023-06-25T01:07:48.806Z,6.57
2023-06-25T01:10:15.252Z,6.33
2023-06-25T01:12:43.763Z,6.67
2023-06-25T01:15:10.706Z,6.90
2023-06-25T01:17:38.683Z,6.60
2023-06-25T01:20:06.879Z,6.70
2023-06-25T01:22:33.848Z,7.10
2023-06-25T01:25:00.958Z,7.40
2023-06-25T01:27:27.611Z,6.60
2023-06-25T01:29:55.237Z,6.50
2023-06-25T01:32:23.570Z,6.73
2023-06-25T01:34:49.961Z,7.27
2023-06-25T01:37:18.815Z,6.23
2023-06-25T01:39:50.552Z,6.30
2023-06-25T01:42:16.942Z,6.80
2023-06-25T01:44:43.506Z,6.23
2023-06-25T01:47:10.217Z,6.20
2023-06-25T01:49:36.636Z,6.23
2023-06-25T01:52:03.707Z,7.10
2023-06-25T01:54:30.449Z,7.03
2023-06-25T01:56:57.734Z,7.30
2023-06-25T01:59:24.108Z,6.63
2023-06-25T02:01:50.589Z,7.10
2023-06-25T02:04:17.108Z,7.20
2023-06-25T02:06:43.788Z,7.20
2023-06-25T02:09:10.347Z,6.80
2023-06-25T02:11:36.766Z,7.10
2023-06-25T02:14:05.095Z,7.27
2023-06-25T02:16:31.761Z,6.70
2023-06-25T02:18:58.369Z,6.90
2023-06-25T02:21:24.777Z,6.90
2023-06-25T02:23:51.281Z,6.70
2023-06-25T02:26:17.666Z,7.10
2023-06-25T02:28:44.087Z,7.67
2023-06-25T02:31:10.485Z,6.87
2023-06-25T02:33:36.947Z,7.13
2023-06-25T02:36:03.595Z,7.43
2023-06-25T02:38:29.973Z,7.00
2023-06-25T02:40:56.397Z,7.00
2023-06-25T02:43:22.828Z,7.07
2023-06-25T02:45:49.371Z,7.00
2023-06-25T02:48:17.859Z,6.37
2023-06-25T02:50:44.479Z,6.10
2023-06-25T02:53:10.891Z,6.50
2023-06-25T02:55:37.765Z,7.17
2023-06-25T02:58:04.456Z,6.97
2023-06-25T03:00:31.035Z,7.30
2023-06-25T03:02:57.639Z,6.43
2023-06-25T03:05:24.168Z,6.33
2023-06-25T03:07:56.662Z,6.00
2023-06-25T03:10:25.494Z,6.70
2023-06-25T03:12:51.884Z,6.77
2023-06-25T03:15:21.241Z,7.60
2023-06-25T03:17:47.752Z,6.93
2023-06-25T03:20:14.597Z,6.17
2023-06-25T03:22:41.586Z,6.73
2023-06-25T03:25:08.882Z,7.20
2023-06-25T03:27:35.512Z,7.37
2023-06-25T03:30:02.462Z,7.70
2023-06-25T03:32:28.944Z,7.20
2023-06-25T03:34:56.474Z,7.30
2023-06-25T03:37:24.103Z,7.33
2023-06-25T03:39:50.669Z,6.93
2023-06-25T03:42:17.305Z,7.13
2023-06-25T03:44:49.717Z,7.07
2023-06-25T03:47:16.139Z,7.07
2023-06-25T03:49:44.218Z,7.43
2023-06-25T03:52:10.626Z,7.23
2023-06-25T03:54:37.013Z,6.00
2023-06-25T03:57:03.877Z,6.03
2023-06-25T03:59:30.428Z,6.80
2023-06-25T04:01:56.894Z,6.90
2023-06-25T04:04:23.361Z,7.13
2023-06-25T04:06:49.912Z,6.47
2023-06-25T04:09:16.526Z,7.47
2023-06-25T04:11:43.070Z,6.63
2023-06-25T04:14:09.435Z,7.17
2023-06-25T04:16:37.418Z,6.67
2023-06-25T04:19:03.854Z,6.37
2023-06-25T04:21:30.223Z,6.60
2023-06-25T04:23:56.579Z,6.60
2023-06-25T04:26:22.936Z,7.20
2023-06-25T04:28:49.313Z,7.10
2023-06-25T04:31:15.702Z,7.70
2023-06-25T04:33:42.966Z,7.07
2023-06-25T04:36:11.257Z,7.80
2023-06-25T04:38:37.630Z,7.37
2023-06-25T04:41:04.048Z,7.10
2023-06-25T04:43:30.416Z,7.57
2023-06-25T04:45:56.843Z,7.27
2023-06-25T04:48:23.270Z,6.90
2023-06-25T04:50:49.948Z,7.10
2023-06-25T04:53:16.374Z,7.20
2023-06-25T04:55:43.005Z,7.07
2023-06-25T04:58:09.399Z,6.57
2023-06-25T05:00:35.773Z,7.90
2023-06-25T05:03:02.372Z,7.50
2023-06-25T05:05:28.820Z,8.23
2023-06-25T05:07:55.196Z,7.10
2023-06-25T05:10:22.727Z,7.10
2023-06-25T05:12:49.189Z,8.40
2023-06-25T05:15:16.152Z,7.90
2023-06-25T05:17:42.582Z,7.60
2023-06-25T05:20:09.666Z,7.17
2023-06-25T05:22:36.125Z,6.90
2023-06-25T05:25:02.809Z,7.03
2023-06-25T05:27:30.324Z,7.27
2023-06-25T05:29:56.724Z,7.07
2023-06-25T05:32:23.131Z,6.37
2023-06-25T05:34:49.558Z,6.87
2023-06-25T05:37:15.958Z,7.33
2023-06-25T05:39:42.315Z,7.70
2023-06-25T05:42:08.726Z,7.10
2023-06-25T05:44:35.103Z,7.03
2023-06-25T05:47:01.487Z,6.43
2023-06-25T05:49:27.916Z,6.90
2023-06-25T05:51:54.269Z,7.23
2023-06-25T05:54:20.622Z,7.77
2023-06-25T05:56:47.171Z,6.60
2023-06-25T05:59:13.564Z,6.63
2023-06-25T06:01:39.955Z,6.67
2023-06-25T06:04:07.094Z,5.93
2023-06-25T06:06:33.502Z,6.80
2023-06-25T06:08:59.976Z,7.13
2023-06-25T06:11:28.847Z,11.07
2023-06-25T06:13:57.458Z,6.77
2023-06-25T06:16:24.338Z,6.53
2023-06-25T06:18:50.757Z,7.90
2023-06-25T06:21:17.117Z,6.60
2023-06-25T06:23:43.506Z,6.57
2023-06-25T06:26:09.865Z,7.07
2023-06-25T06:28:36.237Z,7.20
2023-06-25T06:31:02.667Z,7.13
2023-06-25T06:33:29.040Z,7.50
2023-06-25T06:35:55.468Z,7.50
2023-06-25T06:38:21.835Z,7.33
2023-06-25T06:40:48.305Z,7.00
2023-06-25T06:43:14.696Z,6.57
2023-06-25T06:45:41.076Z,7.30
2023-06-25T06:48:07.915Z,6.93
2023-06-25T06:50:34.361Z,6.60
2023-06-25T06:53:00.782Z,6.83
2023-06-25T06:55:27.165Z,7.03
2023-06-25T06:57:53.517Z,7.30
2023-06-25T07:00:20.406Z,6.87
2023-06-25T07:02:46.859Z,7.30
2023-06-25T07:05:13.966Z,7.50
2023-06-25T07:07:41.884Z,6.93
2023-06-25T07:10:08.942Z,6.70
2023-06-25T07:12:35.320Z,7.30
2023-06-25T07:15:01.847Z,6.43
2023-06-25T07:17:28.380Z,6.80
2023-06-25T07:19:54.785Z,6.83
2023-06-25T07:22:21.155Z,6.50
2023-06-25T07:24:47.556Z,7.13
2023-06-25T07:27:14.016Z,7.40
2023-06-25T07:29:40.494Z,6.67
2023-06-25T07:32:08.612Z,6.47
2023-06-25T07:34:35.535Z,7.30
2023-06-25T07:37:01.908Z,6.63
2023-06-25T07:39:34.156Z,6.60
2023-06-25T07:42:01.217Z,7.03
2023-06-25T07:46:57.148Z,6.87
2023-06-25T07:49:23.539Z,6.13
2023-06-25T07:51:52.206Z,6.90
2023-06-25T07:54:18.859Z,6.60
2023-06-25T07:56:45.616Z,6.93
2023-06-25T07:59:16.143Z,7.43
2023-06-25T08:01:42.959Z,6.63
2023-06-25T08:04:09.730Z,6.40
2023-06-25T08:06:36.285Z,7.03
2023-06-25T08:09:02.975Z,7.40
2023-06-25T08:11:29.682Z,6.50
2023-06-25T08:13:56.053Z,7.80
2023-06-25T08:16:23.883Z,6.87
2023-06-25T08:18:50.816Z,6.30
2023-06-25T08:21:17.301Z,6.87
2023-06-25T08:23:43.747Z,6.97
2023-06-25T08:26:13.759Z,7.27
2023-06-25T08:28:40.701Z,6.70
2023-06-25T08:31:07.187Z,6.90
2023-06-25T08:33:35.356Z,8.40
2023-06-25T08:36:01.719Z,7.60
2023-06-25T08:38:28.230Z,7.60
2023-06-25T08:40:55.774Z,7.00
2023-06-25T08:43:22.490Z,7.07
2023-06-25T08:45:48.928Z,7.00
2023-06-25T08:48:15.370Z,6.80
2023-06-25T08:50:43.834Z,7.53
2023-06-25T08:53:10.725Z,6.90
2023-06-25T08:55:38.691Z,6.83
2023-06-25T08:58:05.628Z,6.50
2023-06-25T09:00:32.209Z,7.97
2023-06-25T09:02:58.815Z,6.70
2023-06-25T09:05:27.079Z,6.83
2023-06-25T09:07:54.506Z,6.30
2023-06-25T09:10:21.420Z,7.10
2023-06-25T09:12:51.921Z,6.13
2023-06-25T09:15:23.024Z,6.60
2023-06-25T09:17:50.145Z,6.37
2023-06-25T09:20:16.620Z,6.77
2023-06-25T09:23:09.424Z,7.40
2023-06-25T09:25:35.788Z,6.53
2023-06-25T09:28:04.387Z,6.47
2023-06-25T09:30:30.833Z,6.80
2023-06-25T09:32:57.356Z,6.30
2023-06-25T09:35:26.313Z,7.13
2023-06-25T09:37:53.952Z,5.90
2023-06-25T09:40:20.683Z,6.87
2023-06-25T09:42:49.523Z,6.70
2023-06-25T09:45:17.008Z,7.67
2023-06-25T09:47:46.237Z,7.50
2023-06-25T09:50:20.872Z,6.60
2023-06-25T09:52:58.449Z,6.90
2023-06-25T09:55:29.243Z,6.10
2023-06-25T09:57:57.112Z,6.47
2023-06-25T10:00:25.708Z,7.03
2023-06-25T10:02:53.559Z,6.90
2023-06-25T10:05:20.212Z,6.90
2023-06-25T10:07:47.495Z,6.40
2023-06-25T10:10:43.309Z,6.10
2023-06-25T10:13:10.361Z,6.63
2023-06-25T10:15:37.996Z,6.20
2023-06-25T10:18:07.027Z,6.63
2023-06-25T10:20:38.127Z,5.73
2023-06-25T10:23:04.611Z,7.20
2023-06-25T10:25:31.418Z,6.00
2023-06-25T10:28:11.215Z,6.40
2023-06-25T10:30:46.688Z,6.40
2023-06-25T10:33:17.910Z,6.37
2023-06-25T10:35:49.062Z,6.60
2023-06-25T10:38:16.660Z,6.23
2023-06-25T10:40:43.353Z,6.10
2023-06-25T10:43:10.793Z,6.73
2023-06-25T10:45:37.692Z,5.77
2023-06-25T10:48:12.740Z,6.70
2023-06-25T10:50:39.176Z,6.33
2023-06-25T10:53:11.292Z,6.67
2023-06-25T10:55:39.469Z,6.70
2023-06-25T10:58:06.086Z,6.70
2023-06-25T11:00:32.475Z,6.67
2023-06-25T11:02:59.441Z,6.80
2023-06-25T11:05:39.974Z,6.13
2023-06-25T11:08:08.564Z,6.43
2023-06-25T11:10:37.187Z,6.30
2023-06-25T11:13:03.882Z,6.60
2023-06-25T11:15:34.442Z,7.43
2023-06-25T11:18:01.627Z,6.00
2023-06-25T11:20:30.799Z,6.23
2023-06-25T11:22:59.913Z,5.30
2023-06-25T11:25:26.639Z,6.63
2023-06-25T11:28:05.460Z,5.63
2023-06-25T11:30:31.958Z,6.07
2023-06-25T11:33:16.277Z,6.50
2023-06-25T11:35:43.956Z,6.20
2023-06-25T11:38:10.997Z,5.80
2023-06-25T11:40:39.992Z,5.10
2023-06-25T11:43:09.364Z,10.63
2023-06-25T11:45:44.132Z,5.83
2023-06-25T11:48:17.318Z,6.57
2023-06-25T11:50:45.099Z,6.07
2023-06-25T11:53:11.858Z,5.90
2023-06-25T11:55:39.103Z,6.07
2023-06-25T11:58:05.799Z,5.37
2023-06-25T12:00:32.281Z,5.70
2023-06-25T12:02:58.685Z,6.20
2023-06-25T12:05:25.182Z,5.50
2023-06-25T12:07:51.551Z,6.07
2023-06-25T12:10:18.392Z,5.00
2023-06-25T12:12:46.098Z,5.90
2023-06-25T12:15:12.658Z,6.33
2023-06-25T12:17:39.181Z,6.40
2023-06-25T12:20:05.997Z,5.67
2023-06-25T12:22:33.451Z,5.10
2023-06-25T12:25:00.008Z,4.97
2023-06-25T12:27:26.372Z,5.03
2023-06-25T12:29:52.736Z,5.70
2023-06-25T12:32:19.120Z,5.23
2023-06-25T12:34:45.507Z,5.87
2023-06-25T12:37:11.871Z,5.10
2023-06-25T12:39:38.248Z,6.00
2023-06-25T12:42:04.960Z,5.40
2023-06-25T12:44:32.102Z,5.90
2023-06-25T12:46:58.500Z,6.37
2023-06-25T12:49:24.880Z,5.13
2023-06-25T12:51:52.482Z,5.77
2023-06-25T12:54:19.338Z,5.67
2023-06-25T12:56:46.221Z,5.43
2023-06-25T12:59:12.701Z,5.47
2023-06-25T13:01:39.098Z,5.70
2023-06-25T13:04:05.938Z,5.50
2023-06-25T13:06:32.416Z,5.40
2023-06-25T13:08:58.786Z,5.80
2023-06-25T13:11:25.170Z,6.00
2023-06-25T13:13:51.519Z,5.40
2023-06-25T13:16:17.880Z,5.13
2023-06-25T13:18:44.330Z,5.70
2023-06-25T13:21:10.702Z,6.30
2023-06-25T13:23:38.224Z,5.00
2023-06-25T13:26:04.718Z,5.43
2023-06-25T13:28:31.112Z,4.90
2023-06-25T13:30:57.707Z,5.53
2023-06-25T13:33:24.139Z,5.47
2023-06-25T13:35:50.502Z,5.00
2023-06-25T13:38:16.981Z,5.50
2023-06-25T13:40:43.362Z,4.93
2023-06-25T13:43:09.835Z,5.93
2023-06-25T13:45:36.345Z,5.00
2023-06-25T13:48:02.911Z,5.73
2023-06-25T13:50:29.314Z,5.20
2023-06-25T13:52:55.705Z,6.20
2023-06-25T13:55:22.136Z,5.60
2023-06-25T13:57:48.556Z,5.43
2023-06-25T14:00:15.246Z,6.00
2023-06-25T14:05:13.397Z,5.43
2023-06-25T14:07:39.877Z,5.20
2023-06-25T14:10:07.265Z,4.50
2023-06-25T14:12:33.775Z,5.50
2023-06-25T14:15:00.953Z,4.90
2023-06-25T14:17:27.333Z,5.30
2023-06-25T14:19:53.772Z,4.90
2023-06-25T14:22:20.121Z,4.70
2023-06-25T14:24:46.476Z,5.80
2023-06-25T14:27:12.829Z,5.50
2023-06-25T14:29:39.177Z,5.07
2023-06-25T14:32:05.794Z,5.13
2023-06-25T14:34:32.220Z,5.33
2023-06-25T14:36:59.731Z,5.90
2023-06-25T14:39:26.100Z,5.53
2023-06-25T14:41:52.467Z,5.13
2023-06-25T14:44:19.115Z,5.70
2023-06-25T14:46:45.462Z,5.53
2023-06-25T14:49:11.815Z,5.10
2023-06-25T14:51:38.218Z,5.93
2023-06-25T14:54:04.585Z,7.17
2023-06-25T14:56:30.968Z,8.40
2023-06-25T14:58:57.373Z,6.90
2023-06-25T15:01:23.808Z,6.30
2023-06-25T15:03:50.295Z,6.13
2023-06-25T15:06:31.174Z,6.20
2023-06-25T15:09:01.822Z,6.07
2023-06-25T15:11:28.187Z,6.20
2023-06-25T15:13:56.310Z,5.80
2023-06-25T15:16:22.758Z,5.53
2023-06-25T15:18:49.130Z,7.27
2023-06-25T15:21:15.524Z,5.60
2023-06-25T15:23:43.319Z,4.83
2023-06-25T15:26:10.336Z,9.33
2023-06-25T15:28:36.695Z,7.30
2023-06-25T15:31:03.067Z,6.97
2023-06-25T15:33:29.484Z,6.13
2023-06-25T15:35:55.861Z,6.57
2023-06-25T15:38:22.316Z,5.57
2023-06-25T15:40:48.697Z,7.17
2023-06-25T15:43:15.778Z,6.57
2023-06-25T15:45:42.296Z,5.90
2023-06-25T15:48:08.821Z,5.20
2023-06-25T15:50:39.979Z,5.30
2023-06-25T15:53:06.553Z,5.73
2023-06-25T15:55:32.904Z,4.93
2023-06-25T15:58:00.258Z,5.97
2023-06-25T16:00:26.757Z,5.60
2023-06-25T16:02:53.304Z,5.57
2023-06-25T16:05:19.733Z,5.47
2023-06-25T16:07:46.404Z,5.23
2023-06-25T16:10:12.833Z,6.80
2023-06-25T16:12:40.421Z,6.40
2023-06-25T16:15:07.666Z,5.90
2023-06-25T16:17:34.067Z,5.57
2023-06-25T16:20:10.850Z,6.30
2023-06-25T16:22:39.069Z,5.70
2023-06-25T16:25:05.817Z,5.23
2023-06-25T16:27:32.232Z,5.60
2023-06-25T16:29:59.458Z,8.00
2023-06-25T16:32:25.821Z,6.60
2023-06-25T16:34:52.189Z,5.33
2023-06-25T16:37:18.950Z,6.03
2023-06-25T16:39:45.353Z,6.20
2023-06-25T16:42:11.721Z,5.30
2023-06-25T16:44:38.116Z,6.00
2023-06-25T16:47:06.252Z,6.30
2023-06-25T16:49:32.691Z,5.73
2023-06-25T16:51:59.108Z,6.00
2023-06-25T16:54:25.550Z,6.40
2023-06-25T16:56:51.932Z,5.83
2023-06-25T16:59:18.624Z,6.03
2023-06-25T17:01:47.201Z,6.13
2023-06-25T17:04:13.662Z,5.73
2023-06-25T17:06:40.139Z,5.80
2023-06-25T17:09:06.522Z,5.70
2023-06-25T17:11:32.899Z,6.30
2023-06-25T17:13:59.298Z,5.63
2023-06-25T17:16:25.728Z,5.80
2023-06-25T17:18:52.164Z,5.90
2023-06-25T17:21:18.562Z,5.50
2023-06-25T17:23:44.927Z,5.83
2023-06-25T17:26:11.369Z,5.40
2023-06-25T17:28:37.752Z,6.03
2023-06-25T17:31:04.126Z,6.13
2023-06-25T17:33:30.475Z,5.83
2023-06-25T17:35:56.856Z,5.40
2023-06-25T17:38:23.245Z,5.93
2023-06-25T17:40:49.659Z,5.77
2023-06-25T17:43:16.124Z,6.70
2023-06-25T17:45:42.492Z,6.03
2023-06-25T17:48:08.951Z,5.67
2023-06-25T17:50:35.401Z,5.50
2023-06-25T17:53:01.819Z,6.13
2023-06-25T17:55:28.189Z,5.70
2023-06-25T17:57:54.576Z,5.33
2023-06-25T18:00:22.197Z,6.30
2023-06-25T18:02:48.722Z,6.60
2023-06-25T18:05:15.380Z,6.07
2023-06-25T18:07:41.756Z,5.70
2023-06-25T18:10:09.784Z,6.23
2023-06-25T18:12:39.435Z,6.27
2023-06-25T18:15:09.087Z,5.67
2023-06-25T18:17:43.687Z,6.47
2023-06-25T18:20:11.253Z,6.60
2023-06-25T18:22:39.418Z,6.10
2023-06-25T18:25:06.177Z,6.90
2023-06-25T18:27:32.556Z,6.50
2023-06-25T18:29:58.923Z,6.40
2023-06-25T18:32:25.311Z,7.00
2023-06-25T18:34:51.702Z,5.80
2023-06-25T18:37:18.080Z,6.50
2023-06-25T18:39:44.454Z,5.70
2023-06-25T18:42:10.832Z,7.07
2023-06-25T18:44:37.395Z,6.77
2023-06-25T18:47:04.594Z,7.23
2023-06-25T18:49:32.655Z,8.07
2023-06-25T18:51:59.037Z,11.07
2023-06-25T18:54:25.700Z,13.03
2023-06-25T18:56:52.127Z,11.67
2023-06-25T18:59:18.491Z,8.90
2023-06-25T19:01:44.856Z,8.57
2023-06-25T19:04:13.722Z,10.40
2023-06-25T19:06:41.058Z,9.20
2023-06-25T19:09:09.320Z,7.20
2023-06-25T19:11:35.717Z,7.70
2023-06-25T19:14:02.469Z,5.80
2023-06-25T19:16:28.853Z,7.00
2023-06-25T19:18:55.212Z,6.43
2023-06-25T19:21:21.759Z,8.23
2023-06-25T19:23:48.144Z,12.10
2023-06-25T19:26:14.666Z,8.90
2023-06-25T19:28:41.056Z,6.90
2023-06-25T19:31:07.517Z,6.60
2023-06-25T19:33:33.925Z,6.80
2023-06-25T19:36:00.421Z,6.77
2023-06-25T19:38:29.118Z,6.77
2023-06-25T19:40:55.557Z,7.03
2023-06-25T19:43:22.306Z,7.63
2023-06-25T19:45:50.607Z,6.93
2023-06-25T19:48:17.247Z,7.80
2023-06-25T19:50:43.950Z,6.90
2023-06-25T19:53:10.377Z,7.50
2023-06-25T19:55:36.765Z,6.20
2023-06-25T19:58:03.117Z,7.23
2023-06-25T20:00:29.520Z,8.20
2023-06-25T20:02:56.055Z,7.70
2023-06-25T20:05:22.570Z,8.80
2023-06-25T20:07:49.898Z,8.00
2023-06-25T20:10:19.537Z,8.60
2023-06-25T20:12:49.713Z,7.73
2023-06-25T20:15:18.365Z,8.07
2023-06-25T20:17:45.003Z,7.60
2023-06-25T20:20:11.724Z,8.10
2023-06-25T20:22:38.138Z,7.30
2023-06-25T20:25:04.831Z,7.70
2023-06-25T20:27:31.258Z,7.87
2023-06-25T20:30:00.677Z,10.50
2023-06-25T20:32:27.485Z,8.40
2023-06-25T20:34:53.872Z,8.50
2023-06-25T20:37:20.243Z,7.87
2023-06-25T20:39:46.679Z,7.50
2023-06-25T20:42:13.096Z,7.33
2023-06-25T20:44:41.766Z,8.00
2023-06-25T20:47:08.757Z,8.57
2023-06-25T20:49:36.692Z,9.60
2023-06-25T20:52:03.159Z,9.80
2023-06-25T20:54:29.949Z,7.80
2023-06-25T20:56:56.634Z,8.73
2023-06-25T20:59:23.129Z,8.10
2023-06-25T21:01:49.520Z,8.50
2023-06-25T21:04:16.112Z,8.00
2023-06-25T21:06:42.703Z,8.37
2023-06-25T21:09:10.307Z,10.00
2023-06-25T21:11:37.036Z,7.30
2023-06-25T21:14:03.538Z,7.90
2023-06-25T21:16:30.369Z,7.90
2023-06-25T21:18:56.733Z,7.90
2023-06-25T21:21:23.084Z,7.97
2023-06-25T21:23:49.500Z,7.80
2023-06-25T21:26:15.968Z,8.47
2023-06-25T21:28:42.361Z,8.50
2023-06-25T21:31:08.845Z,9.00
2023-06-25T21:33:35.247Z,8.70
2023-06-25T21:36:01.652Z,9.90
2023-06-25T21:38:28.002Z,8.77
2023-06-25T21:40:54.366Z,9.13
2023-06-25T21:43:20.726Z,9.70
2023-06-25T21:45:47.105Z,7.87
2023-06-25T21:48:13.532Z,8.60
2023-06-25T21:50:40.175Z,11.30
2023-06-25T21:53:06.698Z,10.30
2023-06-25T21:55:33.094Z,8.50
2023-06-25T21:57:59.438Z,8.07
2023-06-25T22:00:26.276Z,8.53
2023-06-25T22:02:52.860Z,9.10
2023-06-25T22:05:19.397Z,7.50
2023-06-25T22:07:45.797Z,9.37
2023-06-25T22:10:12.197Z,8.03
2023-06-25T22:12:40.214Z,9.07
2023-06-25T22:15:07.172Z,8.33
2023-06-25T22:17:33.586Z,8.70
2023-06-25T22:19:59.976Z,8.60
2023-06-25T22:22:26.314Z,8.20
2023-06-25T22:24:52.724Z,8.70
2023-06-25T22:27:19.121Z,8.83
2023-06-25T22:29:46.967Z,8.23
2023-06-25T22:32:14.916Z,8.87
2023-06-25T22:34:41.413Z,8.70
2023-06-25T22:37:07.880Z,8.90
2023-06-25T22:39:34.376Z,8.73
2023-06-25T22:42:01.046Z,9.90
2023-06-25T22:44:27.412Z,9.10
2023-06-25T22:46:53.753Z,11.90
2023-06-25T22:49:20.105Z,11.70
2023-06-25T22:51:49.454Z,7.97
2023-06-25T22:54:16.453Z,8.27
2023-06-25T22:56:42.929Z,8.10
2023-06-25T22:59:09.372Z,8.10
2023-06-25T23:01:35.797Z,8.60
2023-06-25T23:04:02.364Z,8.10
2023-06-25T23:06:29.039Z,8.80
2023-06-25T23:08:55.478Z,7.97
2023-06-25T23:11:21.828Z,8.40
2023-06-25T23:13:49.240Z,9.00
2023-06-25T23:16:20.180Z,8.73
2023-06-25T23:18:48.723Z,13.67
2023-06-25T23:21:15.492Z,10.27
2023-06-25T23:23:41.884Z,9.57
2023-06-25T23:26:09.269Z,8.37
2023-06-25T23:28:36.072Z,8.33
2023-06-25T23:31:02.522Z,8.50
2023-06-25T23:33:30.084Z,8.17
2023-06-25T23:35:56.992Z,8.40
2023-06-25T23:38:23.392Z,8.10
2023-06-25T23:40:50.113Z,8.80
2023-06-25T23:43:16.509Z,8.00
2023-06-25T23:45:42.986Z,8.40
2023-06-25T23:48:09.482Z,8.37
2023-06-25T23:50:36.028Z,8.63
2023-06-25T23:53:02.966Z,8.20
2023-06-25T23:55:29.523Z,8.50
2023-06-25T23:57:55.967Z,8.03
